sensor_id;sensor_type;location;lat;lon;timestamp;P1;durP1;ratioP1;P2;durP2;ratioP2
28760;SDS011;15917;50.014;8.352;2024-02-28T00:01:20;36.78;;;17.92;;
28760;SDS011;15917;50.014;8.352;2024-02-28T00:03:46;36.47;;;18.52;;
28760;SDS011;15917;50.014;8.352;2024-02-28T00:06:12;37.42;;;18.95;;
28760;SDS011;15917;50.014;8.352;2024-02-28T00:08:37;37.70;;;17.38;;
28760;SDS011;15917;50.014;8.352;2024-02-28T00:11:03;37.30;;;18.70;;
28760;SDS011;15917;50.014;8.352;2024-02-28T00:13:28;39.88;;;19.42;;
28760;SDS011;15917;50.014;8.352;2024-02-28T00:15:54;36.78;;;17.88;;
28760;SDS011;15917;50.014;8.352;2024-02-28T00:18:20;38.75;;;18.38;;
28760;SDS011;15917;50.014;8.352;2024-02-28T00:20:45;38.42;;;18.23;;
28760;SDS011;15917;50.014;8.352;2024-02-28T00:23:11;33.78;;;17.73;;
28760;SDS011;15917;50.014;8.352;2024-02-28T00:25:36;36.70;;;18.05;;
28760;SDS011;15917;50.014;8.352;2024-02-28T00:28:02;34.53;;;18.83;;
28760;SDS011;15917;50.014;8.352;2024-02-28T00:30:28;35.22;;;17.83;;
28760;SDS011;15917;50.014;8.352;2024-02-28T00:32:54;37.38;;;19.33;;
28760;SDS011;15917;50.014;8.352;2024-02-28T00:35:20;38.65;;;19.60;;
28760;SDS011;15917;50.014;8.352;2024-02-28T00:37:45;41.72;;;19.08;;
28760;SDS011;15917;50.014;8.352;2024-02-28T00:40:11;37.42;;;19.50;;
28760;SDS011;15917;50.014;8.352;2024-02-28T00:42:37;35.63;;;17.58;;
28760;SDS011;15917;50.014;8.352;2024-02-28T00:45:03;35.30;;;18.88;;
28760;SDS011;15917;50.014;8.352;2024-02-28T00:47:29;37.60;;;18.08;;
28760;SDS011;15917;50.014;8.352;2024-02-28T00:49:54;30.90;;;18.10;;
28760;SDS011;15917;50.014;8.352;2024-02-28T00:52:20;33.58;;;17.98;;
28760;SDS011;15917;50.014;8.352;2024-02-28T00:54:45;36.42;;;18.02;;
28760;SDS011;15917;50.014;8.352;2024-02-28T00:57:11;38.45;;;19.15;;
28760;SDS011;15917;50.014;8.352;2024-02-28T00:59:37;37.90;;;19.08;;
28760;SDS011;15917;50.014;8.352;2024-02-28T01:02:02;36.05;;;18.30;;
28760;SDS011;15917;50.014;8.352;2024-02-28T01:04:28;43.05;;;18.85;;
28760;SDS011;15917;50.014;8.352;2024-02-28T01:06:54;34.92;;;17.65;;
28760;SDS011;15917;50.014;8.352;2024-02-28T01:09:20;35.03;;;17.50;;
28760;SDS011;15917;50.014;8.352;2024-02-28T01:11:46;32.72;;;17.63;;
28760;SDS011;15917;50.014;8.352;2024-02-28T01:14:12;33.85;;;17.45;;
28760;SDS011;15917;50.014;8.352;2024-02-28T01:16:37;34.00;;;16.80;;
28760;SDS011;15917;50.014;8.352;2024-02-28T01:19:03;40.33;;;18.13;;
28760;SDS011;15917;50.014;8.352;2024-02-28T01:21:29;37.05;;;17.80;;
28760;SDS011;15917;50.014;8.352;2024-02-28T01:23:54;35.55;;;17.80;;
28760;SDS011;15917;50.014;8.352;2024-02-28T01:26:20;35.55;;;17.98;;
28760;SDS011;15917;50.014;8.352;2024-02-28T01:28:47;36.97;;;17.93;;
28760;SDS011;15917;50.014;8.352;2024-02-28T01:31:13;32.92;;;17.38;;
28760;SDS011;15917;50.014;8.352;2024-02-28T01:33:39;32.90;;;17.15;;
28760;SDS011;15917;50.014;8.352;2024-02-28T01:36:08;36.45;;;18.52;;
28760;SDS011;15917;50.014;8.352;2024-02-28T01:38:34;40.83;;;19.50;;
28760;SDS011;15917;50.014;8.352;2024-02-28T01:41:00;37.40;;;18.48;;
28760;SDS011;15917;50.014;8.352;2024-02-28T01:43:25;35.85;;;18.65;;
28760;SDS011;15917;50.014;8.352;2024-02-28T01:45:51;37.33;;;18.65;;
28760;SDS011;15917;50.014;8.352;2024-02-28T01:48:16;39.25;;;18.98;;
28760;SDS011;15917;50.014;8.352;2024-02-28T01:50:42;41.75;;;20.35;;
28760;SDS011;15917;50.014;8.352;2024-02-28T01:53:08;41.60;;;20.25;;
28760;SDS011;15917;50.014;8.352;2024-02-28T01:55:35;43.22;;;20.75;;
28760;SDS011;15917;50.014;8.352;2024-02-28T01:58:01;44.75;;;21.33;;
28760;SDS011;15917;50.014;8.352;2024-02-28T02:00:30;42.35;;;21.25;;
28760;SDS011;15917;50.014;8.352;2024-02-28T02:05:25;44.60;;;20.63;;
28760;SDS011;15917;50.014;8.352;2024-02-28T02:07:50;46.08;;;22.30;;
28760;SDS011;15917;50.014;8.352;2024-02-28T02:10:16;50.65;;;23.15;;
28760;SDS011;15917;50.014;8.352;2024-02-28T02:12:42;47.90;;;23.70;;
28760;SDS011;15917;50.014;8.352;2024-02-28T02:15:08;54.25;;;26.10;;
28760;SDS011;15917;50.014;8.352;2024-02-28T02:17:34;54.38;;;25.60;;
28760;SDS011;15917;50.014;8.352;2024-02-28T02:19:59;57.50;;;28.00;;
28760;SDS011;15917;50.014;8.352;2024-02-28T02:22:32;61.47;;;28.45;;
28760;SDS011;15917;50.014;8.352;2024-02-28T02:25:06;52.92;;;27.40;;
28760;SDS011;15917;50.014;8.352;2024-02-28T02:27:32;59.90;;;27.30;;
28760;SDS011;15917;50.014;8.352;2024-02-28T02:29:58;56.42;;;27.10;;
28760;SDS011;15917;50.014;8.352;2024-02-28T02:32:23;63.28;;;28.58;;
28760;SDS011;15917;50.014;8.352;2024-02-28T02:34:49;64.65;;;29.80;;
28760;SDS011;15917;50.014;8.352;2024-02-28T02:37:15;64.43;;;29.55;;
28760;SDS011;15917;50.014;8.352;2024-02-28T02:39:40;70.57;;;31.63;;
28760;SDS011;15917;50.014;8.352;2024-02-28T02:42:06;69.75;;;30.95;;
28760;SDS011;15917;50.014;8.352;2024-02-28T02:44:32;74.43;;;31.77;;
28760;SDS011;15917;50.014;8.352;2024-02-28T02:46:58;73.57;;;30.48;;
28760;SDS011;15917;50.014;8.352;2024-02-28T02:49:24;71.80;;;31.50;;
28760;SDS011;15917;50.014;8.352;2024-02-28T02:51:50;70.05;;;30.40;;
28760;SDS011;15917;50.014;8.352;2024-02-28T02:54:15;68.90;;;31.38;;
28760;SDS011;15917;50.014;8.352;2024-02-28T02:56:41;72.28;;;31.30;;
28760;SDS011;15917;50.014;8.352;2024-02-28T02:59:08;72.78;;;31.67;;
28760;SDS011;15917;50.014;8.352;2024-02-28T03:01:37;68.55;;;30.40;;
28760;SDS011;15917;50.014;8.352;2024-02-28T03:04:03;63.67;;;28.48;;
28760;SDS011;15917;50.014;8.352;2024-02-28T03:06:29;71.20;;;31.17;;
28760;SDS011;15917;50.014;8.352;2024-02-28T03:08:54;76.55;;;33.17;;
28760;SDS011;15917;50.014;8.352;2024-02-28T03:11:20;75.30;;;31.90;;
28760;SDS011;15917;50.014;8.352;2024-02-28T03:13:46;73.43;;;31.35;;
28760;SDS011;15917;50.014;8.352;2024-02-28T03:16:11;76.88;;;31.25;;
28760;SDS011;15917;50.014;8.352;2024-02-28T03:18:37;63.70;;;28.65;;
28760;SDS011;15917;50.014;8.352;2024-02-28T03:21:03;71.13;;;31.13;;
28760;SDS011;15917;50.014;8.352;2024-02-28T03:23:29;67.40;;;31.08;;
28760;SDS011;15917;50.014;8.352;2024-02-28T03:25:54;69.00;;;30.27;;
28760;SDS011;15917;50.014;8.352;2024-02-28T03:28:20;65.03;;;29.52;;
28760;SDS011;15917;50.014;8.352;2024-02-28T03:30:46;64.93;;;29.08;;
28760;SDS011;15917;50.014;8.352;2024-02-28T03:33:11;64.00;;;29.50;;
28760;SDS011;15917;50.014;8.352;2024-02-28T03:35:37;67.18;;;29.55;;
28760;SDS011;15917;50.014;8.352;2024-02-28T03:38:02;67.80;;;29.48;;
28760;SDS011;15917;50.014;8.352;2024-02-28T03:40:28;70.55;;;29.75;;
28760;SDS011;15917;50.014;8.352;2024-02-28T03:42:54;65.10;;;30.08;;
28760;SDS011;15917;50.014;8.352;2024-02-28T03:45:19;66.15;;;29.13;;
28760;SDS011;15917;50.014;8.352;2024-02-28T03:47:45;63.15;;;28.35;;
28760;SDS011;15917;50.014;8.352;2024-02-28T03:50:11;56.20;;;25.92;;
28760;SDS011;15917;50.014;8.352;2024-02-28T03:52:36;65.82;;;29.25;;
28760;SDS011;15917;50.014;8.352;2024-02-28T03:55:02;65.72;;;28.40;;
28760;SDS011;15917;50.014;8.352;2024-02-28T03:57:28;59.83;;;27.92;;
28760;SDS011;15917;50.014;8.352;2024-02-28T03:59:54;56.63;;;27.23;;
28760;SDS011;15917;50.014;8.352;2024-02-28T04:02:19;62.05;;;28.00;;
28760;SDS011;15917;50.014;8.352;2024-02-28T04:04:45;62.65;;;27.88;;
28760;SDS011;15917;50.014;8.352;2024-02-28T04:07:10;62.45;;;27.25;;
28760;SDS011;15917;50.014;8.352;2024-02-28T04:09:36;69.45;;;28.60;;
28760;SDS011;15917;50.014;8.352;2024-02-28T04:12:01;75.15;;;30.40;;
28760;SDS011;15917;50.014;8.352;2024-02-28T04:14:28;74.07;;;29.92;;
28760;SDS011;15917;50.014;8.352;2024-02-28T04:16:53;57.80;;;25.45;;
28760;SDS011;15917;50.014;8.352;2024-02-28T04:19:19;65.65;;;29.60;;
28760;SDS011;15917;50.014;8.352;2024-02-28T04:21:45;61.88;;;27.98;;
28760;SDS011;15917;50.014;8.352;2024-02-28T04:24:10;66.82;;;27.83;;
28760;SDS011;15917;50.014;8.352;2024-02-28T04:26:36;65.03;;;28.60;;
28760;SDS011;15917;50.014;8.352;2024-02-28T04:29:01;73.38;;;29.92;;
28760;SDS011;15917;50.014;8.352;2024-02-28T04:31:30;70.32;;;30.17;;
28760;SDS011;15917;50.014;8.352;2024-02-28T04:33:56;67.70;;;27.75;;
28760;SDS011;15917;50.014;8.352;2024-02-28T04:36:22;66.57;;;27.85;;
28760;SDS011;15917;50.014;8.352;2024-02-28T04:38:47;64.47;;;26.73;;
28760;SDS011;15917;50.014;8.352;2024-02-28T04:41:13;64.05;;;26.30;;
28760;SDS011;15917;50.014;8.352;2024-02-28T04:43:39;65.00;;;27.92;;
28760;SDS011;15917;50.014;8.352;2024-02-28T04:46:05;69.18;;;27.38;;
28760;SDS011;15917;50.014;8.352;2024-02-28T04:48:30;69.22;;;28.42;;
28760;SDS011;15917;50.014;8.352;2024-02-28T04:50:56;66.63;;;25.98;;
28760;SDS011;15917;50.014;8.352;2024-02-28T04:53:22;67.47;;;26.63;;
28760;SDS011;15917;50.014;8.352;2024-02-28T04:55:47;61.10;;;26.75;;
28760;SDS011;15917;50.014;8.352;2024-02-28T04:58:13;62.55;;;26.48;;
28760;SDS011;15917;50.014;8.352;2024-02-28T05:00:39;76.32;;;27.95;;
28760;SDS011;15917;50.014;8.352;2024-02-28T05:03:04;68.40;;;26.70;;
28760;SDS011;15917;50.014;8.352;2024-02-28T05:05:30;70.15;;;26.38;;
28760;SDS011;15917;50.014;8.352;2024-02-28T05:07:55;69.90;;;26.08;;
28760;SDS011;15917;50.014;8.352;2024-02-28T05:10:21;74.88;;;26.23;;
28760;SDS011;15917;50.014;8.352;2024-02-28T05:12:46;70.95;;;26.50;;
28760;SDS011;15917;50.014;8.352;2024-02-28T05:15:12;67.18;;;25.98;;
28760;SDS011;15917;50.014;8.352;2024-02-28T05:17:37;69.93;;;27.50;;
28760;SDS011;15917;50.014;8.352;2024-02-28T05:20:03;72.70;;;27.90;;
28760;SDS011;15917;50.014;8.352;2024-02-28T05:22:29;71.07;;;26.67;;
28760;SDS011;15917;50.014;8.352;2024-02-28T05:24:54;63.53;;;25.63;;
28760;SDS011;15917;50.014;8.352;2024-02-28T05:27:21;67.55;;;27.15;;
28760;SDS011;15917;50.014;8.352;2024-02-28T05:29:47;68.70;;;25.50;;
28760;SDS011;15917;50.014;8.352;2024-02-28T05:32:13;64.07;;;25.83;;
28760;SDS011;15917;50.014;8.352;2024-02-28T05:34:38;67.10;;;25.48;;
28760;SDS011;15917;50.014;8.352;2024-02-28T05:37:04;72.18;;;27.67;;
28760;SDS011;15917;50.014;8.352;2024-02-28T05:39:30;67.35;;;25.58;;
28760;SDS011;15917;50.014;8.352;2024-02-28T05:41:56;65.72;;;25.30;;
28760;SDS011;15917;50.014;8.352;2024-02-28T05:44:22;59.72;;;23.77;;
28760;SDS011;15917;50.014;8.352;2024-02-28T05:46:49;64.23;;;24.40;;
28760;SDS011;15917;50.014;8.352;2024-02-28T05:49:15;61.05;;;24.23;;
28760;SDS011;15917;50.014;8.352;2024-02-28T05:51:40;61.63;;;23.52;;
28760;SDS011;15917;50.014;8.352;2024-02-28T05:54:06;56.60;;;23.50;;
28760;SDS011;15917;50.014;8.352;2024-02-28T05:56:32;56.67;;;23.83;;
28760;SDS011;15917;50.014;8.352;2024-02-28T05:58:57;61.58;;;22.48;;
28760;SDS011;15917;50.014;8.352;2024-02-28T06:01:23;56.83;;;23.73;;
28760;SDS011;15917;50.014;8.352;2024-02-28T06:03:48;53.28;;;23.70;;
28760;SDS011;15917;50.014;8.352;2024-02-28T06:06:14;64.07;;;25.15;;
28760;SDS011;15917;50.014;8.352;2024-02-28T06:08:40;58.38;;;23.60;;
28760;SDS011;15917;50.014;8.352;2024-02-28T06:11:06;55.80;;;22.48;;
28760;SDS011;15917;50.014;8.352;2024-02-28T06:13:32;54.45;;;22.05;;
28760;SDS011;15917;50.014;8.352;2024-02-28T06:15:58;49.30;;;21.75;;
28760;SDS011;15917;50.014;8.352;2024-02-28T06:18:27;53.08;;;21.75;;
28760;SDS011;15917;50.014;8.352;2024-02-28T06:20:53;53.88;;;20.65;;
28760;SDS011;15917;50.014;8.352;2024-02-28T06:23:20;53.00;;;20.85;;
28760;SDS011;15917;50.014;8.352;2024-02-28T06:25:46;50.30;;;20.15;;
28760;SDS011;15917;50.014;8.352;2024-02-28T06:28:11;47.22;;;21.20;;
28760;SDS011;15917;50.014;8.352;2024-02-28T06:30:37;54.65;;;21.65;;
28760;SDS011;15917;50.014;8.352;2024-02-28T06:33:03;54.40;;;21.25;;
28760;SDS011;15917;50.014;8.352;2024-02-28T06:35:29;53.92;;;20.75;;
28760;SDS011;15917;50.014;8.352;2024-02-28T06:37:55;60.05;;;21.60;;
28760;SDS011;15917;50.014;8.352;2024-02-28T06:40:21;56.67;;;21.17;;
28760;SDS011;15917;50.014;8.352;2024-02-28T06:42:46;57.42;;;21.75;;
28760;SDS011;15917;50.014;8.352;2024-02-28T06:45:12;58.85;;;22.40;;
28760;SDS011;15917;50.014;8.352;2024-02-28T06:47:38;58.13;;;22.55;;
28760;SDS011;15917;50.014;8.352;2024-02-28T06:50:04;59.00;;;22.98;;
28760;SDS011;15917;50.014;8.352;2024-02-28T06:52:30;56.58;;;22.90;;
28760;SDS011;15917;50.014;8.352;2024-02-28T06:54:55;56.90;;;21.10;;
28760;SDS011;15917;50.014;8.352;2024-02-28T06:57:22;57.83;;;22.83;;
28760;SDS011;15917;50.014;8.352;2024-02-28T06:59:47;54.13;;;21.45;;
28760;SDS011;15917;50.014;8.352;2024-02-28T07:02:13;57.97;;;21.73;;
28760;SDS011;15917;50.014;8.352;2024-02-28T07:04:39;68.00;;;24.00;;
28760;SDS011;15917;50.014;8.352;2024-02-28T07:07:06;57.88;;;21.85;;
28760;SDS011;15917;50.014;8.352;2024-02-28T07:09:31;61.65;;;23.42;;
28760;SDS011;15917;50.014;8.352;2024-02-28T07:11:58;57.15;;;21.77;;
28760;SDS011;15917;50.014;8.352;2024-02-28T07:14:24;61.33;;;23.40;;
28760;SDS011;15917;50.014;8.352;2024-02-28T07:16:50;58.78;;;22.77;;
28760;SDS011;15917;50.014;8.352;2024-02-28T07:19:19;48.17;;;16.58;;
28760;SDS011;15917;50.014;8.352;2024-02-28T07:21:44;60.58;;;23.23;;
28760;SDS011;15917;50.014;8.352;2024-02-28T07:24:10;57.88;;;21.95;;
28760;SDS011;15917;50.014;8.352;2024-02-28T07:26:36;51.60;;;21.38;;
28760;SDS011;15917;50.014;8.352;2024-02-28T07:29:01;49.95;;;21.17;;
28760;SDS011;15917;50.014;8.352;2024-02-28T07:31:27;48.35;;;19.42;;
28760;SDS011;15917;50.014;8.352;2024-02-28T07:33:53;44.13;;;18.13;;
28760;SDS011;15917;50.014;8.352;2024-02-28T07:36:19;51.03;;;21.75;;
28760;SDS011;15917;50.014;8.352;2024-02-28T07:38:45;51.30;;;21.25;;
28760;SDS011;15917;50.014;8.352;2024-02-28T07:41:10;50.30;;;20.80;;
28760;SDS011;15917;50.014;8.352;2024-02-28T07:43:36;53.95;;;22.27;;
28760;SDS011;15917;50.014;8.352;2024-02-28T07:46:09;54.75;;;21.27;;
28760;SDS011;15917;50.014;8.352;2024-02-28T07:48:36;50.15;;;20.83;;
28760;SDS011;15917;50.014;8.352;2024-02-28T07:51:05;56.45;;;20.85;;
28760;SDS011;15917;50.014;8.352;2024-02-28T07:53:31;54.10;;;21.80;;
28760;SDS011;15917;50.014;8.352;2024-02-28T07:55:57;51.10;;;21.27;;
28760;SDS011;15917;50.014;8.352;2024-02-28T07:58:23;55.08;;;23.15;;
28760;SDS011;15917;50.014;8.352;2024-02-28T08:00:49;51.22;;;20.23;;
28760;SDS011;15917;50.014;8.352;2024-02-28T08:03:15;51.50;;;20.67;;
28760;SDS011;15917;50.014;8.352;2024-02-28T08:05:41;49.47;;;19.77;;
28760;SDS011;15917;50.014;8.352;2024-02-28T08:08:09;45.55;;;19.65;;
28760;SDS011;15917;50.014;8.352;2024-02-28T08:10:34;55.00;;;20.52;;
28760;SDS011;15917;50.014;8.352;2024-02-28T08:13:01;44.97;;;19.65;;
28760;SDS011;15917;50.014;8.352;2024-02-28T08:15:27;51.63;;;18.80;;
28760;SDS011;15917;50.014;8.352;2024-02-28T08:17:52;49.15;;;19.73;;
28760;SDS011;15917;50.014;8.352;2024-02-28T08:20:19;44.40;;;19.23;;
28760;SDS011;15917;50.014;8.352;2024-02-28T08:22:44;46.63;;;19.60;;
28760;SDS011;15917;50.014;8.352;2024-02-28T08:25:11;46.03;;;19.00;;
28760;SDS011;15917;50.014;8.352;2024-02-28T08:27:37;48.38;;;20.10;;
28760;SDS011;15917;50.014;8.352;2024-02-28T08:30:03;42.20;;;18.55;;
28760;SDS011;15917;50.014;8.352;2024-02-28T08:32:32;46.22;;;19.55;;
28760;SDS011;15917;50.014;8.352;2024-02-28T08:34:58;40.55;;;18.27;;
28760;SDS011;15917;50.014;8.352;2024-02-28T08:37:25;40.38;;;18.75;;
28760;SDS011;15917;50.014;8.352;2024-02-28T08:39:52;36.92;;;17.65;;
28760;SDS011;15917;50.014;8.352;2024-02-28T08:42:20;42.53;;;20.67;;
28760;SDS011;15917;50.014;8.352;2024-02-28T08:44:45;40.60;;;20.13;;
28760;SDS011;15917;50.014;8.352;2024-02-28T08:47:13;40.20;;;19.30;;
28760;SDS011;15917;50.014;8.352;2024-02-28T08:49:39;39.28;;;19.40;;
28760;SDS011;15917;50.014;8.352;2024-02-28T08:52:04;37.95;;;19.25;;
28760;SDS011;15917;50.014;8.352;2024-02-28T08:54:30;38.00;;;19.58;;
28760;SDS011;15917;50.014;8.352;2024-02-28T08:56:56;40.42;;;18.83;;
28760;SDS011;15917;50.014;8.352;2024-02-28T08:59:21;37.22;;;17.95;;
28760;SDS011;15917;50.014;8.352;2024-02-28T09:01:47;39.60;;;18.92;;
28760;SDS011;15917;50.014;8.352;2024-02-28T09:04:14;43.10;;;20.77;;
28760;SDS011;15917;50.014;8.352;2024-02-28T09:06:39;37.95;;;19.05;;
28760;SDS011;15917;50.014;8.352;2024-02-28T09:09:06;34.95;;;18.15;;
28760;SDS011;15917;50.014;8.352;2024-02-28T09:11:31;36.80;;;18.98;;
28760;SDS011;15917;50.014;8.352;2024-02-28T09:13:57;35.83;;;19.00;;
28760;SDS011;15917;50.014;8.352;2024-02-28T09:16:22;37.15;;;18.77;;
28760;SDS011;15917;50.014;8.352;2024-02-28T09:18:48;37.47;;;19.27;;
28760;SDS011;15917;50.014;8.352;2024-02-28T09:21:13;35.95;;;19.08;;
28760;SDS011;15917;50.014;8.352;2024-02-28T09:23:40;36.33;;;18.58;;
28760;SDS011;15917;50.014;8.352;2024-02-28T09:26:06;37.58;;;20.10;;
28760;SDS011;15917;50.014;8.352;2024-02-28T09:28:32;37.47;;;19.98;;
28760;SDS011;15917;50.014;8.352;2024-02-28T09:30:58;36.92;;;19.42;;
28760;SDS011;15917;50.014;8.352;2024-02-28T09:33:24;33.38;;;18.88;;
28760;SDS011;15917;50.014;8.352;2024-02-28T09:35:50;38.03;;;19.50;;
28760;SDS011;15917;50.014;8.352;2024-02-28T09:38:15;41.60;;;18.65;;
28760;SDS011;15917;50.014;8.352;2024-02-28T09:40:41;36.08;;;18.67;;
28760;SDS011;15917;50.014;8.352;2024-02-28T09:43:11;37.90;;;18.55;;
28760;SDS011;15917;50.014;8.352;2024-02-28T09:45:40;35.00;;;18.52;;
28760;SDS011;15917;50.014;8.352;2024-02-28T09:48:06;33.83;;;16.98;;
28760;SDS011;15917;50.014;8.352;2024-02-28T09:50:34;37.40;;;18.67;;
28760;SDS011;15917;50.014;8.352;2024-02-28T09:53:00;35.15;;;18.83;;
28760;SDS011;15917;50.014;8.352;2024-02-28T09:55:25;33.75;;;17.17;;
28760;SDS011;15917;50.014;8.352;2024-02-28T09:57:51;33.55;;;17.38;;
28760;SDS011;15917;50.014;8.352;2024-02-28T10:00:19;36.40;;;17.17;;
28760;SDS011;15917;50.014;8.352;2024-02-28T10:02:46;35.47;;;17.88;;
28760;SDS011;15917;50.014;8.352;2024-02-28T10:05:14;37.47;;;18.75;;
28760;SDS011;15917;50.014;8.352;2024-02-28T10:07:41;35.67;;;16.85;;
28760;SDS011;15917;50.014;8.352;2024-02-28T10:10:07;33.97;;;17.48;;
28760;SDS011;15917;50.014;8.352;2024-02-28T10:12:33;30.25;;;16.83;;
28760;SDS011;15917;50.014;8.352;2024-02-28T10:15:02;33.40;;;16.98;;
28760;SDS011;15917;50.014;8.352;2024-02-28T10:17:28;34.33;;;17.45;;
28760;SDS011;15917;50.014;8.352;2024-02-28T10:19:53;29.95;;;16.35;;
28760;SDS011;15917;50.014;8.352;2024-02-28T10:22:19;31.60;;;17.08;;
28760;SDS011;15917;50.014;8.352;2024-02-28T10:24:45;37.22;;;16.35;;
28760;SDS011;15917;50.014;8.352;2024-02-28T10:27:10;34.47;;;17.90;;
28760;SDS011;15917;50.014;8.352;2024-02-28T10:29:41;32.95;;;17.00;;
28760;SDS011;15917;50.014;8.352;2024-02-28T10:34:35;30.73;;;15.90;;
28760;SDS011;15917;50.014;8.352;2024-02-28T10:37:03;40.67;;;18.23;;
28760;SDS011;15917;50.014;8.352;2024-02-28T10:39:30;33.70;;;16.30;;
28760;SDS011;15917;50.014;8.352;2024-02-28T10:41:57;34.17;;;17.33;;
28760;SDS011;15917;50.014;8.352;2024-02-28T10:44:25;31.17;;;16.08;;
28760;SDS011;15917;50.014;8.352;2024-02-28T10:46:52;31.77;;;15.88;;
28760;SDS011;15917;50.014;8.352;2024-02-28T10:49:19;33.13;;;16.90;;
28760;SDS011;15917;50.014;8.352;2024-02-28T10:51:48;34.90;;;16.60;;
28760;SDS011;15917;50.014;8.352;2024-02-28T10:54:14;31.55;;;16.85;;
28760;SDS011;15917;50.014;8.352;2024-02-28T10:56:41;33.75;;;18.25;;
28760;SDS011;15917;50.014;8.352;2024-02-28T10:59:08;31.48;;;17.27;;
28760;SDS011;15917;50.014;8.352;2024-02-28T11:01:35;34.07;;;19.27;;
28760;SDS011;15917;50.014;8.352;2024-02-28T11:04:02;32.80;;;17.88;;
28760;SDS011;15917;50.014;8.352;2024-02-28T11:06:29;38.38;;;18.95;;
28760;SDS011;15917;50.014;8.352;2024-02-28T11:08:54;36.20;;;19.38;;
28760;SDS011;15917;50.014;8.352;2024-02-28T11:11:21;45.85;;;21.55;;
28760;SDS011;15917;50.014;8.352;2024-02-28T11:13:51;39.80;;;18.88;;
28760;SDS011;15917;50.014;8.352;2024-02-28T11:16:32;35.70;;;18.67;;
28760;SDS011;15917;50.014;8.352;2024-02-28T11:18:59;37.30;;;17.45;;
28760;SDS011;15917;50.014;8.352;2024-02-28T11:21:26;34.53;;;16.25;;
28760;SDS011;15917;50.014;8.352;2024-02-28T11:23:59;35.28;;;18.02;;
28760;SDS011;15917;50.014;8.352;2024-02-28T11:26:25;35.95;;;19.33;;
28760;SDS011;15917;50.014;8.352;2024-02-28T11:28:53;34.47;;;19.35;;
28760;SDS011;15917;50.014;8.352;2024-02-28T11:31:22;38.95;;;18.02;;
28760;SDS011;15917;50.014;8.352;2024-02-28T11:33:48;30.58;;;16.58;;
28760;SDS011;15917;50.014;8.352;2024-02-28T11:36:13;31.60;;;17.15;;
28760;SDS011;15917;50.014;8.352;2024-02-28T11:38:40;33.08;;;17.50;;
28760;SDS011;15917;50.014;8.352;2024-02-28T11:41:06;30.77;;;16.77;;
28760;SDS011;15917;50.014;8.352;2024-02-28T11:43:32;36.05;;;18.42;;
28760;SDS011;15917;50.014;8.352;2024-02-28T11:45:59;30.55;;;15.82;;
28760;SDS011;15917;50.014;8.352;2024-02-28T11:48:25;32.58;;;17.60;;
28760;SDS011;15917;50.014;8.352;2024-02-28T11:50:53;30.48;;;16.85;;
28760;SDS011;15917;50.014;8.352;2024-02-28T11:53:18;34.28;;;17.35;;
28760;SDS011;15917;50.014;8.352;2024-02-28T11:55:48;31.38;;;16.17;;
28760;SDS011;15917;50.014;8.352;2024-02-28T11:58:14;31.23;;;17.33;;
28760;SDS011;15917;50.014;8.352;2024-02-28T12:00:47;28.17;;;16.52;;
28760;SDS011;15917;50.014;8.352;2024-02-28T12:03:13;28.77;;;15.38;;
28760;SDS011;15917;50.014;8.352;2024-02-28T12:05:38;27.17;;;16.00;;
28760;SDS011;15917;50.014;8.352;2024-02-28T12:08:08;33.97;;;16.33;;
28760;SDS011;15917;50.014;8.352;2024-02-28T12:10:34;32.63;;;16.98;;
28760;SDS011;15917;50.014;8.352;2024-02-28T12:13:00;30.10;;;16.52;;
28760;SDS011;15917;50.014;8.352;2024-02-28T12:15:28;27.02;;;14.68;;
28760;SDS011;15917;50.014;8.352;2024-02-28T12:17:57;27.30;;;15.00;;
28760;SDS011;15917;50.014;8.352;2024-02-28T12:20:25;27.67;;;14.48;;
28760;SDS011;15917;50.014;8.352;2024-02-28T12:22:51;32.92;;;15.45;;
28760;SDS011;15917;50.014;8.352;2024-02-28T12:25:17;22.67;;;13.18;;
28760;SDS011;15917;50.014;8.352;2024-02-28T12:27:42;23.70;;;13.02;;
28760;SDS011;15917;50.014;8.352;2024-02-28T12:30:08;22.95;;;13.57;;
28760;SDS011;15917;50.014;8.352;2024-02-28T12:32:34;24.10;;;14.07;;
28760;SDS011;15917;50.014;8.352;2024-02-28T12:34:59;26.08;;;14.40;;
28760;SDS011;15917;50.014;8.352;2024-02-28T12:37:25;28.45;;;15.65;;
28760;SDS011;15917;50.014;8.352;2024-02-28T12:39:51;31.20;;;16.60;;
28760;SDS011;15917;50.014;8.352;2024-02-28T12:42:17;32.25;;;16.35;;
28760;SDS011;15917;50.014;8.352;2024-02-28T12:44:43;28.10;;;16.02;;
28760;SDS011;15917;50.014;8.352;2024-02-28T12:47:12;27.27;;;14.85;;
28760;SDS011;15917;50.014;8.352;2024-02-28T12:49:38;33.35;;;17.77;;
28760;SDS011;15917;50.014;8.352;2024-02-28T12:52:03;28.83;;;16.42;;
28760;SDS011;15917;50.014;8.352;2024-02-28T12:54:30;28.00;;;15.73;;
28760;SDS011;15917;50.014;8.352;2024-02-28T12:56:55;29.90;;;16.63;;
28760;SDS011;15917;50.014;8.352;2024-02-28T12:59:21;31.83;;;15.30;;
28760;SDS011;15917;50.014;8.352;2024-02-28T13:01:47;24.30;;;14.60;;
28760;SDS011;15917;50.014;8.352;2024-02-28T13:04:16;27.48;;;15.30;;
28760;SDS011;15917;50.014;8.352;2024-02-28T13:06:41;25.52;;;14.88;;
28760;SDS011;15917;50.014;8.352;2024-02-28T13:09:07;30.00;;;15.45;;
28760;SDS011;15917;50.014;8.352;2024-02-28T13:11:38;26.98;;;13.88;;
28760;SDS011;15917;50.014;8.352;2024-02-28T13:14:03;24.50;;;13.63;;
28760;SDS011;15917;50.014;8.352;2024-02-28T13:16:29;29.65;;;14.70;;
28760;SDS011;15917;50.014;8.352;2024-02-28T13:18:55;28.17;;;13.40;;
28760;SDS011;15917;50.014;8.352;2024-02-28T13:21:21;27.70;;;14.38;;
28760;SDS011;15917;50.014;8.352;2024-02-28T13:23:47;23.10;;;13.02;;
28760;SDS011;15917;50.014;8.352;2024-02-28T13:26:12;26.08;;;13.75;;
28760;SDS011;15917;50.014;8.352;2024-02-28T13:28:45;27.77;;;12.63;;
28760;SDS011;15917;50.014;8.352;2024-02-28T13:31:11;20.35;;;11.18;;
28760;SDS011;15917;50.014;8.352;2024-02-28T13:33:37;24.45;;;12.50;;
28760;SDS011;15917;50.014;8.352;2024-02-28T13:36:03;25.50;;;12.70;;
28760;SDS011;15917;50.014;8.352;2024-02-28T13:38:29;20.52;;;11.13;;
28760;SDS011;15917;50.014;8.352;2024-02-28T13:40:55;22.65;;;12.07;;
28760;SDS011;15917;50.014;8.352;2024-02-28T13:43:21;21.17;;;11.52;;
28760;SDS011;15917;50.014;8.352;2024-02-28T13:45:47;19.08;;;10.90;;
28760;SDS011;15917;50.014;8.352;2024-02-28T13:48:15;16.67;;;9.63;;
28760;SDS011;15917;50.014;8.352;2024-02-28T13:50:46;18.98;;;10.07;;
28760;SDS011;15917;50.014;8.352;2024-02-28T13:53:13;18.42;;;8.95;;
28760;SDS011;15917;50.014;8.352;2024-02-28T13:55:40;16.70;;;9.55;;
28760;SDS011;15917;50.014;8.352;2024-02-28T13:58:08;17.33;;;9.32;;
28760;SDS011;15917;50.014;8.352;2024-02-28T14:00:35;17.17;;;9.88;;
28760;SDS011;15917;50.014;8.352;2024-02-28T14:03:02;20.52;;;9.70;;
28760;SDS011;15917;50.014;8.352;2024-02-28T14:05:28;19.25;;;10.07;;
28760;SDS011;15917;50.014;8.352;2024-02-28T14:07:54;18.02;;;9.55;;
28760;SDS011;15917;50.014;8.352;2024-02-28T14:10:20;14.43;;;8.02;;
28760;SDS011;15917;50.014;8.352;2024-02-28T14:12:46;20.17;;;8.95;;
28760;SDS011;15917;50.014;8.352;2024-02-28T14:15:12;17.02;;;9.32;;
28760;SDS011;15917;50.014;8.352;2024-02-28T14:17:38;17.38;;;8.15;;
28760;SDS011;15917;50.014;8.352;2024-02-28T14:20:04;16.35;;;9.05;;